createdAt,value
2023-01-29T00:02:09.268Z,4.20
2023-01-29T00:04:41.836Z,4.75
2023-01-29T00:07:14.451Z,4.70
2023-01-29T00:09:47.026Z,4.85
2023-01-29T00:12:19.605Z,5.05
2023-01-29T00:14:52.245Z,5.10
2023-01-29T00:17:24.891Z,4.40
2023-01-29T00:19:57.552Z,4.88
2023-01-29T00:22:31.001Z,5.00
2023-01-29T00:25:03.769Z,4.67
2023-01-29T00:27:36.481Z,4.90
2023-01-29T00:30:12.896Z,4.90
2023-01-29T00:32:45.986Z,4.68
2023-01-29T00:35:18.805Z,5.25
2023-01-29T00:37:51.473Z,5.05
2023-01-29T00:40:25.843Z,5.10
2023-01-29T00:45:49.325Z,4.72
2023-01-29T00:48:21.837Z,5.47
2023-01-29T00:50:54.387Z,5.10
2023-01-29T00:53:27.179Z,5.07
2023-01-29T00:55:59.651Z,4.97
2023-01-29T00:58:34.324Z,4.78
2023-01-29T01:01:06.996Z,4.43
2023-01-29T01:03:42.378Z,5.13
2023-01-29T01:06:15.147Z,5.20
2023-01-29T01:09:06.481Z,4.93
2023-01-29T01:11:38.991Z,4.95
2023-01-29T01:14:11.535Z,4.82
2023-01-29T01:16:46.433Z,4.95
2023-01-29T01:19:19.076Z,4.90
2023-01-29T01:21:51.590Z,5.28
2023-01-29T01:24:24.137Z,4.82
2023-01-29T01:26:57.017Z,4.82
2023-01-29T01:29:29.728Z,4.63
2023-01-29T01:32:02.374Z,4.90
2023-01-29T01:34:35.703Z,5.05
2023-01-29T01:37:08.231Z,5.53
2023-01-29T01:39:40.798Z,5.00
2023-01-29T01:42:13.610Z,4.78
2023-01-29T01:45:07.940Z,4.88
2023-01-29T01:47:54.362Z,4.80
2023-01-29T01:51:09.445Z,4.45
2023-01-29T01:53:53.312Z,4.88
2023-01-29T01:56:40.774Z,5.10
2023-01-29T01:59:18.739Z,4.72
2023-01-29T02:01:54.445Z,4.63
2023-01-29T02:04:46.017Z,4.93
2023-01-29T02:07:36.999Z,4.72
2023-01-29T02:10:16.972Z,5.35
2023-01-29T02:12:51.395Z,4.97
2023-01-29T02:15:24.101Z,4.80
2023-01-29T02:17:56.711Z,5.18
2023-01-29T02:20:32.027Z,5.53
2023-01-29T02:23:46.959Z,5.38
2023-01-29T02:27:19.420Z,5.18
2023-01-29T02:30:26.498Z,5.30
2023-01-29T02:33:36.923Z,4.95
2023-01-29T02:36:50.517Z,4.85
2023-01-29T02:40:04.994Z,5.30
2023-01-29T02:42:56.849Z,5.13
2023-01-29T02:45:43.730Z,5.70
2023-01-29T02:48:22.931Z,4.85
2023-01-29T02:51:07.894Z,5.25
2023-01-29T02:53:59.417Z,5.68
2023-01-29T02:57:00.845Z,5.53
2023-01-29T02:59:42.320Z,4.68
2023-01-29T03:02:26.171Z,5.07
2023-01-29T03:05:04.681Z,5.60
2023-01-29T03:07:46.671Z,5.53
2023-01-29T03:10:31.127Z,5.82
2023-01-29T03:13:18.619Z,5.55
2023-01-29T03:16:03.891Z,5.20
2023-01-29T03:19:01.757Z,5.97
2023-01-29T03:21:53.846Z,5.28
2023-01-29T03:25:05.180Z,5.35
2023-01-29T03:28:08.443Z,5.45
2023-01-29T03:31:07.260Z,5.03
2023-01-29T03:33:53.798Z,5.90
2023-01-29T03:36:45.721Z,5.75
2023-01-29T03:39:18.414Z,5.80
2023-01-29T03:42:34.145Z,5.82
2023-01-29T03:48:14.880Z,6.05
2023-01-29T03:51:15.616Z,5.47
2023-01-29T03:54:03.021Z,5.60
2023-01-29T03:56:47.677Z,5.47
2023-01-29T04:02:28.062Z,5.93
2023-01-29T04:05:13.487Z,5.32
2023-01-29T04:07:48.590Z,5.47
2023-01-29T04:10:27.502Z,5.65
2023-01-29T04:13:06.918Z,6.03
2023-01-29T04:15:48.961Z,5.95
2023-01-29T04:18:21.642Z,5.82
2023-01-29T04:20:54.930Z,5.60
2023-01-29T04:23:28.182Z,5.78
2023-01-29T04:26:24.506Z,6.00
2023-01-29T04:29:25.085Z,5.97
2023-01-29T04:32:15.904Z,5.82
2023-01-29T04:35:06.346Z,6.00
2023-01-29T04:37:55.297Z,6.00
2023-01-29T04:40:42.289Z,5.88
2023-01-29T04:43:26.092Z,6.00
2023-01-29T04:46:19.768Z,5.57
2023-01-29T04:49:34.360Z,5.88
2023-01-29T04:52:32.548Z,6.03
2023-01-29T04:55:25.046Z,5.68
2023-01-29T04:58:07.476Z,5.60
2023-01-29T05:00:44.684Z,5.85
2023-01-29T05:03:17.551Z,4.93
2023-01-29T05:05:51.605Z,5.60
2023-01-29T05:08:28.304Z,5.03
2023-01-29T05:11:00.972Z,5.82
2023-01-29T05:13:39.632Z,5.63
2023-01-29T05:16:25.760Z,5.60
2023-01-29T05:18:58.944Z,5.82
2023-01-29T05:21:32.705Z,5.53
2023-01-29T05:24:18.077Z,5.15
2023-01-29T05:27:12.821Z,5.38
2023-01-29T05:29:47.584Z,4.97
2023-01-29T05:32:20.272Z,5.63
2023-01-29T05:34:52.924Z,5.60
2023-01-29T05:37:25.515Z,5.25
2023-01-29T05:39:58.172Z,5.85
2023-01-29T05:42:30.737Z,5.38
2023-01-29T05:45:04.017Z,5.68
2023-01-29T05:47:36.706Z,5.40
2023-01-29T05:50:10.265Z,5.65
2023-01-29T05:52:43.433Z,5.70
2023-01-29T05:55:16.127Z,5.20
2023-01-29T05:57:48.675Z,5.65
2023-01-29T06:00:21.557Z,5.10
2023-01-29T06:02:54.266Z,5.50
2023-01-29T06:05:26.911Z,5.65
2023-01-29T06:07:59.644Z,5.18
2023-01-29T06:10:32.536Z,5.70
2023-01-29T06:13:05.106Z,5.40
2023-01-29T06:15:41.015Z,5.55
2023-01-29T06:18:13.485Z,4.97
2023-01-29T06:20:46.029Z,5.55
2023-01-29T06:23:18.543Z,5.60
2023-01-29T06:25:51.062Z,6.43
2023-01-29T06:28:23.766Z,5.20
2023-01-29T06:31:21.054Z,5.47
2023-01-29T06:33:54.718Z,5.40
2023-01-29T06:36:27.361Z,5.85
2023-01-29T06:39:00.103Z,5.38
2023-01-29T06:41:32.834Z,5.85
2023-01-29T06:44:05.773Z,5.40
2023-01-29T06:46:38.325Z,5.38
2023-01-29T06:49:10.993Z,5.20
2023-01-29T06:51:43.515Z,5.20
2023-01-29T06:54:16.061Z,5.13
2023-01-29T06:56:48.749Z,5.40
2023-01-29T06:59:21.296Z,5.60
2023-01-29T07:01:53.851Z,5.50
2023-01-29T07:04:26.383Z,5.53
2023-01-29T07:07:02.122Z,5.15
2023-01-29T07:09:34.639Z,4.97
2023-01-29T07:12:08.246Z,5.40
2023-01-29T07:14:40.751Z,5.32
2023-01-29T07:17:13.274Z,5.63
2023-01-29T07:19:45.849Z,5.53
2023-01-29T07:22:18.406Z,4.90
2023-01-29T07:24:51.137Z,5.03
2023-01-29T07:27:23.932Z,5.30
2023-01-29T07:29:56.637Z,4.80
2023-01-29T07:32:29.358Z,5.10
2023-01-29T07:35:01.869Z,4.40
2023-01-29T07:37:34.454Z,5.38
2023-01-29T07:40:11.190Z,4.60
2023-01-29T07:42:44.124Z,4.68
2023-01-29T07:45:16.782Z,4.60
2023-01-29T07:47:54.453Z,4.85
2023-01-29T07:50:27.857Z,4.68
2023-01-29T07:53:00.997Z,4.45
2023-01-29T07:55:33.857Z,4.85
2023-01-29T07:58:06.680Z,4.47
2023-01-29T08:00:39.744Z,5.10
2023-01-29T08:03:16.401Z,4.50
2023-01-29T08:05:48.968Z,4.60
2023-01-29T08:08:21.649Z,4.82
2023-01-29T08:10:54.193Z,5.05
2023-01-29T08:13:26.769Z,4.68
2023-01-29T08:16:04.028Z,4.78
2023-01-29T08:18:38.587Z,4.15
2023-01-29T08:21:13.087Z,4.55
2023-01-29T08:23:46.405Z,4.32
2023-01-29T08:26:19.050Z,4.28
2023-01-29T08:28:51.639Z,4.55
2023-01-29T08:31:24.549Z,4.20
2023-01-29T08:33:57.343Z,4.40
2023-01-29T08:36:29.953Z,4.63
2023-01-29T08:39:02.660Z,4.15
2023-01-29T08:41:35.313Z,4.28
2023-01-29T08:44:08.049Z,3.88
2023-01-29T08:46:40.966Z,4.18
2023-01-29T08:49:13.630Z,3.90
2023-01-29T08:51:46.290Z,4.25
2023-01-29T08:54:19.057Z,4.30
2023-01-29T08:56:51.623Z,4.00
2023-01-29T08:59:24.198Z,3.85
2023-01-29T09:01:56.881Z,4.03
2023-01-29T09:04:29.538Z,3.70
2023-01-29T09:07:02.025Z,3.90
2023-01-29T09:09:34.689Z,3.97
2023-01-29T09:12:07.593Z,4.05
2023-01-29T09:14:40.135Z,4.28
2023-01-29T09:17:12.757Z,3.90
2023-01-29T09:19:45.425Z,3.70
2023-01-29T09:22:18.139Z,3.97
2023-01-29T09:24:50.684Z,4.60
2023-01-29T09:27:23.842Z,3.80
2023-01-29T09:29:56.417Z,4.40
2023-01-29T09:32:52.677Z,3.55
2023-01-29T09:35:24.109Z,4.03
2023-01-29T09:37:56.958Z,4.35
2023-01-29T09:40:55.599Z,4.22
2023-01-29T09:43:46.015Z,3.47
2023-01-29T09:46:42.705Z,4.18
2023-01-29T09:49:29.534Z,4.35
2023-01-29T09:52:10.895Z,4.05
2023-01-29T09:55:05.517Z,3.65
2023-01-29T09:57:56.059Z,4.00
2023-01-29T10:00:50.756Z,3.65
2023-01-29T10:03:28.915Z,4.15
2023-01-29T10:06:21.886Z,4.00
2023-01-29T10:09:41.770Z,3.97
2023-01-29T10:13:05.865Z,3.85
2023-01-29T10:16:08.544Z,3.90
2023-01-29T10:19:07.207Z,4.22
2023-01-29T10:22:16.464Z,3.75
2023-01-29T10:25:04.113Z,4.25
2023-01-29T10:27:44.599Z,4.57
2023-01-29T10:30:34.785Z,3.95
2023-01-29T10:33:18.424Z,3.70
2023-01-29T10:36:00.374Z,3.70
2023-01-29T10:38:50.679Z,3.83
2023-01-29T10:42:18.797Z,3.92
2023-01-29T10:45:25.705Z,3.80
2023-01-29T10:48:33.741Z,3.78
2023-01-29T10:51:45.438Z,3.40
2023-01-29T10:55:04.406Z,4.00
2023-01-29T10:58:17.364Z,3.80
2023-01-29T11:00:51.501Z,3.88
2023-01-29T11:06:27.883Z,3.70
2023-01-29T11:09:39.825Z,4.00
2023-01-29T11:12:22.831Z,3.92
2023-01-29T11:15:18.326Z,4.40
2023-01-29T11:18:13.666Z,4.28
2023-01-29T11:20:46.606Z,3.90
2023-01-29T11:23:31.029Z,3.65
2023-01-29T11:26:05.860Z,3.72
2023-01-29T11:28:49.618Z,3.40
2023-01-29T11:31:29.217Z,3.70
2023-01-29T11:34:13.879Z,3.90
2023-01-29T11:39:25.284Z,3.90
2023-01-29T11:42:03.746Z,4.07
2023-01-29T11:44:43.223Z,3.72
2023-01-29T11:47:38.974Z,3.60
2023-01-29T11:50:24.493Z,3.75
2023-01-29T11:53:00.276Z,4.25
2023-01-29T11:55:49.818Z,3.80
2023-01-29T11:58:35.843Z,3.33
2023-01-29T12:01:10.965Z,3.63
2023-01-29T12:03:53.887Z,3.70
2023-01-29T12:06:42.350Z,3.90
2023-01-29T12:09:22.834Z,3.95
2023-01-29T12:11:55.449Z,3.63
2023-01-29T12:14:35.957Z,4.00
2023-01-29T12:17:23.994Z,3.60
2023-01-29T12:20:09.069Z,3.30
2023-01-29T12:23:03.877Z,3.85
2023-01-29T12:29:23.961Z,3.35
2023-01-29T12:32:38.117Z,4.15
2023-01-29T12:35:30.720Z,2.97
2023-01-29T12:38:20.958Z,3.45
2023-01-29T12:41:07.927Z,3.92
2023-01-29T12:43:49.383Z,3.38
2023-01-29T12:46:29.424Z,3.55
2023-01-29T12:49:13.001Z,3.65
2023-01-29T12:52:11.642Z,3.75
2023-01-29T12:54:56.128Z,3.70
2023-01-29T13:00:29.290Z,3.03
2023-01-29T13:03:19.874Z,3.53
2023-01-29T13:06:03.382Z,3.97
2023-01-29T13:08:51.497Z,3.33
2023-01-29T13:11:33.899Z,3.50
2023-01-29T13:14:40.553Z,4.07
2023-01-29T13:17:30.640Z,3.10
2023-01-29T13:20:34.025Z,3.42
2023-01-29T13:23:21.160Z,3.08
2023-01-29T13:25:55.025Z,3.50
2023-01-29T13:28:28.203Z,3.10
2023-01-29T13:31:48.447Z,3.45
2023-01-29T13:34:33.163Z,3.85
2023-01-29T13:37:39.763Z,3.55
2023-01-29T13:40:27.934Z,3.53
2023-01-29T13:43:02.869Z,3.00
2023-01-29T13:45:44.545Z,3.40
2023-01-29T13:48:31.907Z,3.50
2023-01-29T13:51:16.994Z,3.70
2023-01-29T13:54:00.767Z,3.20
2023-01-29T13:56:33.323Z,2.92
2023-01-29T13:59:07.090Z,3.30
2023-01-29T14:01:48.746Z,3.55
2023-01-29T14:04:31.373Z,2.90
2023-01-29T14:07:45.439Z,2.83
2023-01-29T14:10:23.054Z,3.33
2023-01-29T14:13:18.534Z,3.47
2023-01-29T14:15:56.978Z,3.67
2023-01-29T14:18:33.665Z,3.15
2023-01-29T14:21:21.463Z,3.20
2023-01-29T14:24:18.878Z,2.95
2023-01-29T14:26:55.913Z,3.67
2023-01-29T14:29:38.080Z,3.38
2023-01-29T14:32:20.423Z,3.72
2023-01-29T14:35:20.505Z,3.30
2023-01-29T14:37:59.367Z,2.80
2023-01-29T14:40:35.724Z,3.30
2023-01-29T14:43:21.736Z,3.38
2023-01-29T14:45:54.435Z,2.95
2023-01-29T14:48:46.595Z,3.33
2023-01-29T14:51:20.802Z,3.13
2023-01-29T14:56:59.388Z,3.15
2023-01-29T14:59:46.771Z,3.58
2023-01-29T15:02:33.807Z,3.38
2023-01-29T15:05:21.630Z,2.95
2023-01-29T15:08:01.453Z,3.42
2023-01-29T15:11:11.203Z,3.10
2023-01-29T15:14:06.375Z,3.10
2023-01-29T15:16:56.057Z,3.47
2023-01-29T15:19:44.964Z,3.35
2023-01-29T15:22:23.218Z,2.80
2023-01-29T15:25:13.781Z,3.28
2023-01-29T15:27:46.750Z,3.42
2023-01-29T15:30:32.850Z,3.42
2023-01-29T15:33:10.743Z,3.20
2023-01-29T15:35:43.523Z,3.35
2023-01-29T15:38:20.769Z,3.20
2023-01-29T15:41:02.185Z,2.97
2023-01-29T15:43:46.198Z,3.42
2023-01-29T15:46:37.596Z,3.30
2023-01-29T15:49:25.918Z,2.90
2023-01-29T15:52:04.308Z,3.17
2023-01-29T15:54:36.923Z,3.10
2023-01-29T15:57:24.897Z,3.20
2023-01-29T15:59:58.910Z,3.17
2023-01-29T16:02:34.684Z,3.65
2023-01-29T16:05:19.681Z,3.35
2023-01-29T16:07:55.615Z,3.42
2023-01-29T16:10:32.294Z,3.30
2023-01-29T16:13:05.374Z,2.80
2023-01-29T16:15:54.933Z,2.90
2023-01-29T16:18:39.514Z,3.47
2023-01-29T16:21:28.744Z,3.10
2023-01-29T16:24:09.383Z,3.05
2023-01-29T16:26:49.226Z,2.83
2023-01-29T16:29:30.019Z,3.08
2023-01-29T16:32:03.679Z,3.63
2023-01-29T16:34:41.447Z,2.90
2023-01-29T16:37:28.538Z,2.95
2023-01-29T16:40:13.280Z,2.90
2023-01-29T16:42:45.786Z,3.10
2023-01-29T16:45:30.664Z,2.70
2023-01-29T16:48:32.526Z,2.90
2023-01-29T16:51:13.965Z,2.95
2023-01-29T16:53:56.523Z,2.92
2023-01-29T16:56:33.322Z,2.80
2023-01-29T16:59:07.240Z,3.35
2023-01-29T17:01:39.854Z,2.72
2023-01-29T17:04:19.243Z,3.33
2023-01-29T17:07:02.319Z,3.28
2023-01-29T17:09:38.071Z,3.28
2023-01-29T17:12:21.923Z,3.03
2023-01-29T17:15:29.887Z,3.30
2023-01-29T17:18:03.639Z,3.22
2023-01-29T17:20:36.215Z,2.92
2023-01-29T17:23:08.676Z,3.08
2023-01-29T17:25:41.524Z,3.08
2023-01-29T17:28:17.459Z,2.45
2023-01-29T17:31:04.963Z,3.28
2023-01-29T17:33:43.501Z,2.80
2023-01-29T17:36:17.798Z,2.80
2023-01-29T17:38:50.307Z,2.90
2023-01-29T17:41:30.275Z,2.58
2023-01-29T17:44:02.818Z,3.20
2023-01-29T17:46:35.369Z,2.90
2023-01-29T17:49:28.854Z,3.13
2023-01-29T17:52:01.582Z,2.63
2023-01-29T17:54:34.093Z,3.05
2023-01-29T17:57:06.564Z,2.88
2023-01-29T17:59:39.040Z,2.95
2023-01-29T18:02:29.676Z,2.90
2023-01-29T18:05:02.472Z,2.42
2023-01-29T18:07:37.156Z,2.95
2023-01-29T18:10:21.601Z,2.90
2023-01-29T18:15:26.933Z,3.15
2023-01-29T18:18:00.336Z,3.00
2023-01-29T18:20:36.663Z,3.00
2023-01-29T18:23:09.342Z,2.88
2023-01-29T18:25:43.200Z,2.80
2023-01-29T18:28:17.624Z,2.55
2023-01-29T18:30:50.504Z,2.75
2023-01-29T18:33:24.202Z,3.08
2023-01-29T18:35:57.119Z,2.72
2023-01-29T18:38:29.847Z,2.70
2023-01-29T18:41:10.581Z,2.95
2023-01-29T18:43:44.192Z,2.38
2023-01-29T18:46:16.934Z,2.75
2023-01-29T18:48:49.877Z,2.83
2023-01-29T18:51:22.529Z,2.80
2023-01-29T18:53:55.111Z,2.60
2023-01-29T18:56:28.008Z,3.13
2023-01-29T18:59:00.579Z,2.97
2023-01-29T19:01:33.358Z,2.47
2023-01-29T19:04:06.070Z,2.83
2023-01-29T19:06:38.947Z,2.67
2023-01-29T19:09:11.570Z,3.08
2023-01-29T19:11:44.240Z,2.72
2023-01-29T19:14:17.167Z,2.95
2023-01-29T19:16:50.504Z,3.33
2023-01-29T19:19:23.196Z,3.10
2023-01-29T19:21:55.719Z,2.83
2023-01-29T19:24:28.303Z,3.20
2023-01-29T19:27:01.919Z,3.00
2023-01-29T19:29:34.513Z,2.88
2023-01-29T19:32:08.679Z,2.80
2023-01-29T19:37:14.404Z,3.03
2023-01-29T19:39:46.946Z,3.43
2023-01-29T19:42:20.780Z,3.63
2023-01-29T19:44:53.467Z,3.13
2023-01-29T19:47:26.097Z,2.83
2023-01-29T19:49:58.638Z,3.08
2023-01-29T19:52:49.816Z,3.30
2023-01-29T19:55:23.686Z,3.00
2023-01-29T19:57:58.155Z,3.10
2023-01-29T20:00:30.842Z,2.88
2023-01-29T20:03:03.585Z,2.90
2023-01-29T20:05:37.466Z,3.72
2023-01-29T20:08:09.999Z,3.20
2023-01-29T20:10:46.836Z,3.25
2023-01-29T20:13:19.544Z,3.00
2023-01-29T20:15:53.130Z,3.30
2023-01-29T20:18:25.655Z,3.30
2023-01-29T20:20:59.132Z,2.90
2023-01-29T20:23:38.063Z,3.15
2023-01-29T20:26:17.330Z,2.90
2023-01-29T20:28:50.115Z,2.97
2023-01-29T20:31:22.842Z,2.97
2023-01-29T20:33:55.462Z,3.58
2023-01-29T20:36:28.370Z,3.53
2023-01-29T20:39:00.864Z,3.22
2023-01-29T20:41:33.762Z,3.28
2023-01-29T20:44:06.359Z,3.30
2023-01-29T20:46:39.300Z,3.45
2023-01-29T20:49:12.314Z,3.20
2023-01-29T20:51:46.207Z,3.10
2023-01-29T20:54:18.908Z,3.35
2023-01-29T20:56:51.598Z,3.15
2023-01-29T20:59:24.336Z,3.20
2023-01-29T21:01:57.002Z,2.97
2023-01-29T21:04:31.346Z,3.00
2023-01-29T21:07:03.891Z,3.40
2023-01-29T21:09:36.634Z,2.95
2023-01-29T21:12:09.675Z,3.08
2023-01-29T21:14:42.217Z,2.95
2023-01-29T21:17:14.695Z,2.92
2023-01-29T21:19:47.871Z,3.13
2023-01-29T21:22:20.858Z,3.17
2023-01-29T21:24:53.530Z,3.30
2023-01-29T21:27:26.221Z,3.00
2023-01-29T21:29:58.806Z,3.08
2023-01-29T21:32:31.449Z,3.10
2023-01-29T21:35:04.289Z,3.63
2023-01-29T21:37:38.043Z,3.88
2023-01-29T21:40:11.461Z,3.60
2023-01-29T21:43:02.555Z,3.22
2023-01-29T21:45:35.828Z,3.10
2023-01-29T21:48:10.862Z,3.70
2023-01-29T21:50:43.930Z,3.28
2023-01-29T21:53:17.287Z,3.20
2023-01-29T21:55:50.026Z,3.70
2023-01-29T21:58:22.700Z,3.92
2023-01-29T22:00:55.438Z,3.33
2023-01-29T22:03:28.067Z,3.20
2023-01-29T22:06:00.623Z,3.65
2023-01-29T22:08:33.326Z,3.58
2023-01-29T22:11:09.537Z,3.40
2023-01-29T22:13:42.747Z,3.10
2023-01-29T22:16:15.317Z,3.10
2023-01-29T22:18:49.971Z,3.83
2023-01-29T22:21:22.595Z,3.55
2023-01-29T22:23:55.243Z,3.78
2023-01-29T22:26:29.692Z,3.75
2023-01-29T22:29:03.447Z,3.50
2023-01-29T22:31:35.967Z,3.22
2023-01-29T22:34:13.957Z,3.70
2023-01-29T22:36:46.439Z,3.63
2023-01-29T22:39:19.029Z,3.72
2023-01-29T22:41:51.607Z,3.53
2023-01-29T22:44:24.234Z,3.42
2023-01-29T22:46:56.875Z,3.67
2023-01-29T22:49:30.701Z,3.95
2023-01-29T22:52:12.106Z,4.03
2023-01-29T22:54:44.879Z,4.13
2023-01-29T22:57:17.397Z,3.50
2023-01-29T22:59:49.955Z,3.30
2023-01-29T23:02:22.646Z,3.50
2023-01-29T23:04:55.400Z,3.00
2023-01-29T23:07:28.053Z,3.45
2023-01-29T23:10:00.742Z,2.92
2023-01-29T23:12:33.408Z,3.33
2023-01-29T23:15:07.378Z,3.47
2023-01-29T23:17:40.064Z,3.17
2023-01-29T23:20:13.458Z,3.20
2023-01-29T23:22:47.066Z,3.40
2023-01-29T23:25:19.583Z,3.85
2023-01-29T23:27:52.071Z,3.05
2023-01-29T23:30:24.583Z,2.97
2023-01-29T23:32:57.332Z,3.88
2023-01-29T23:35:29.970Z,3.58
2023-01-29T23:38:02.642Z,3.22
2023-01-29T23:40:35.149Z,3.20
2023-01-29T23:43:07.721Z,3.33
2023-01-29T23:45:41.475Z,3.22
2023-01-29T23:48:14.002Z,3.20
2023-01-29T23:50:47.846Z,3.10
2023-01-29T23:53:20.575Z,3.45
2023-01-29T23:56:02.442Z,3.58
2023-01-29T23:58:35.097Z,3.25
